createdAt,value
2022-12-22T00:00:08.802Z,3.95
2022-12-22T00:02:54.269Z,4.03
2022-12-22T00:05:42.051Z,4.45
2022-12-22T00:08:28.677Z,4.30
2022-12-22T00:11:15.509Z,4.15
2022-12-22T00:14:03.449Z,4.45
2022-12-22T00:16:52.001Z,5.45
2022-12-22T00:19:37.205Z,4.90
2022-12-22T00:22:40.579Z,4.47
2022-12-22T00:25:26.411Z,5.03
2022-12-22T00:28:11.719Z,4.22
2022-12-22T00:30:57.295Z,4.55
2022-12-22T00:33:42.547Z,5.82
2022-12-22T00:36:30.605Z,5.70
2022-12-22T00:39:16.199Z,4.57
2022-12-22T00:42:02.150Z,4.20
2022-12-22T00:44:47.552Z,4.47
2022-12-22T00:47:40.353Z,6.20
2022-12-22T00:50:27.378Z,5.00
2022-12-22T00:53:13.497Z,6.13
2022-12-22T00:55:58.895Z,5.88
2022-12-22T00:58:44.406Z,5.40
2022-12-22T01:01:31.389Z,5.07
2022-12-22T01:04:16.708Z,5.75
2022-12-22T01:07:02.218Z,5.13
2022-12-22T01:09:47.715Z,5.00
2022-12-22T01:12:41.734Z,5.70
2022-12-22T01:15:38.606Z,4.75
2022-12-22T01:18:24.694Z,6.00
2022-12-22T01:21:11.642Z,5.07
2022-12-22T01:23:58.243Z,4.82
2022-12-22T01:26:43.583Z,6.65
2022-12-22T01:29:29.165Z,4.90
2022-12-22T01:32:14.581Z,5.13
2022-12-22T01:35:00.512Z,6.22
2022-12-22T01:37:46.223Z,6.53
2022-12-22T01:40:37.899Z,5.10
2022-12-22T01:43:45.339Z,4.10
2022-12-22T01:46:41.024Z,5.07
2022-12-22T01:49:29.455Z,5.25
2022-12-22T01:52:15.056Z,5.82
2022-12-22T01:55:01.242Z,5.95
2022-12-22T01:57:48.044Z,7.05
2022-12-22T02:00:33.415Z,5.57
2022-12-22T02:03:20.485Z,5.55
2022-12-22T02:06:45.279Z,6.53
2022-12-22T02:09:48.571Z,5.60
2022-12-22T02:12:42.648Z,5.70
2022-12-22T02:15:45.173Z,6.88
2022-12-22T02:18:37.251Z,5.30
2022-12-22T02:21:30.389Z,4.90
2022-12-22T02:24:43.054Z,6.07
2022-12-22T02:27:30.468Z,5.35
2022-12-22T02:30:20.739Z,4.88
2022-12-22T02:33:09.802Z,5.63
2022-12-22T02:36:16.576Z,5.80
2022-12-22T02:39:42.892Z,6.53
2022-12-22T02:42:48.425Z,4.50
2022-12-22T02:46:07.937Z,7.22
2022-12-22T02:49:19.333Z,7.15
2022-12-22T02:52:09.832Z,5.80
2022-12-22T02:54:55.335Z,4.60
2022-12-22T02:57:40.850Z,4.82
2022-12-22T03:00:26.845Z,5.80
2022-12-22T03:03:12.525Z,5.07
2022-12-22T03:05:57.785Z,5.07
2022-12-22T03:08:43.606Z,4.10
2022-12-22T03:11:28.689Z,5.88
2022-12-22T03:14:13.999Z,4.47
2022-12-22T03:16:59.592Z,5.20
2022-12-22T03:19:44.887Z,5.82
2022-12-22T03:22:30.429Z,4.47
2022-12-22T03:25:15.795Z,5.35
2022-12-22T03:27:42.469Z,6.47
2022-12-22T03:30:09.573Z,6.50
2022-12-22T03:32:36.253Z,5.57
2022-12-22T03:35:03.017Z,3.78
2022-12-22T03:37:29.718Z,4.55
2022-12-22T03:39:56.374Z,4.65
2022-12-22T03:42:41.721Z,4.45
2022-12-22T03:45:28.731Z,5.30
2022-12-22T03:47:55.416Z,5.60
2022-12-22T03:50:22.133Z,4.97
2022-12-22T03:52:48.811Z,5.40
2022-12-22T03:55:15.650Z,6.07
2022-12-22T03:57:42.362Z,4.97
2022-12-22T04:00:09.546Z,4.88
2022-12-22T04:02:36.418Z,4.47
2022-12-22T04:05:03.736Z,4.30
2022-12-22T04:07:30.456Z,4.53
2022-12-22T04:10:15.856Z,4.10
2022-12-22T04:12:54.478Z,4.78
2022-12-22T04:15:22.649Z,4.53
2022-12-22T04:17:50.034Z,4.60
2022-12-22T04:20:17.128Z,3.00
2022-12-22T04:22:43.864Z,4.40
2022-12-22T04:25:10.966Z,6.30
2022-12-22T04:27:37.721Z,6.28
2022-12-22T04:30:06.351Z,5.38
2022-12-22T04:32:33.256Z,7.40
2022-12-22T04:34:59.972Z,6.43
2022-12-22T04:37:26.769Z,6.05
2022-12-22T04:39:53.428Z,4.78
2022-12-22T04:42:20.186Z,6.45
2022-12-22T04:44:46.880Z,4.90
2022-12-22T04:47:13.699Z,5.18
2022-12-22T04:49:40.398Z,4.25
2022-12-22T04:52:07.204Z,5.60
2022-12-22T04:54:34.107Z,5.10
2022-12-22T04:57:01.178Z,4.68
2022-12-22T04:59:27.851Z,6.25
2022-12-22T05:01:54.690Z,6.25
2022-12-22T05:04:23.821Z,5.10
2022-12-22T05:06:50.918Z,6.03
2022-12-22T05:09:17.583Z,4.60
2022-12-22T05:11:44.324Z,5.70
2022-12-22T05:14:10.991Z,5.38
2022-12-22T05:16:37.720Z,5.80
2022-12-22T05:19:04.465Z,5.93
2022-12-22T05:21:31.127Z,3.95
2022-12-22T05:23:58.700Z,5.20
2022-12-22T05:26:25.424Z,4.78
2022-12-22T05:28:52.585Z,5.55
2022-12-22T05:31:25.213Z,4.28
2022-12-22T05:33:52.442Z,3.15
2022-12-22T05:36:19.355Z,3.63
2022-12-22T05:38:46.214Z,4.13
2022-12-22T05:41:13.062Z,3.85
2022-12-22T05:43:40.065Z,2.88
2022-12-22T05:46:09.396Z,4.03
2022-12-22T05:48:39.062Z,3.20
2022-12-22T05:51:08.288Z,3.67
2022-12-22T05:53:35.023Z,3.28
2022-12-22T05:56:01.825Z,3.00
2022-12-22T05:58:28.535Z,2.97
2022-12-22T06:00:59.231Z,2.67
2022-12-22T06:03:27.143Z,3.65
2022-12-22T06:05:54.527Z,3.63
2022-12-22T06:08:21.926Z,2.92
2022-12-22T06:10:48.717Z,4.10
2022-12-22T06:13:15.741Z,3.70
2022-12-22T06:15:42.457Z,3.08
2022-12-22T06:18:09.210Z,5.05
2022-12-22T06:20:36.067Z,3.65
2022-12-22T06:23:02.863Z,3.58
2022-12-22T06:25:29.562Z,3.45
2022-12-22T06:27:56.221Z,4.03
2022-12-22T06:30:29.201Z,5.10
2022-12-22T06:33:00.637Z,3.20
2022-12-22T06:35:27.354Z,3.65
2022-12-22T06:37:54.050Z,3.55
2022-12-22T06:40:20.714Z,3.40
2022-12-22T06:43:08.998Z,3.67
2022-12-22T06:45:41.707Z,3.10
2022-12-22T06:48:09.671Z,2.50
2022-12-22T06:50:36.493Z,2.60
2022-12-22T06:53:03.976Z,1.60
2022-12-22T06:55:30.927Z,2.25
2022-12-22T06:57:57.700Z,1.90
2022-12-22T07:00:24.982Z,2.28
2022-12-22T07:02:51.761Z,2.28
2022-12-22T07:05:18.612Z,1.35
2022-12-22T07:07:45.520Z,1.95
2022-12-22T07:10:12.983Z,1.67
2022-12-22T07:12:39.691Z,1.98
2022-12-22T07:15:06.902Z,1.63
2022-12-22T07:17:33.682Z,1.65
2022-12-22T07:20:00.570Z,2.40
2022-12-22T07:22:30.389Z,1.77
2022-12-22T07:24:58.111Z,1.60
2022-12-22T07:27:24.810Z,2.25
2022-12-22T07:29:51.504Z,1.73
2022-12-22T07:32:18.183Z,1.75
2022-12-22T07:37:13.911Z,1.85
2022-12-22T07:39:40.744Z,2.38
2022-12-22T07:42:26.870Z,1.65
2022-12-22T07:44:53.938Z,1.55
2022-12-22T07:47:21.010Z,2.65
2022-12-22T07:50:06.150Z,2.20
2022-12-22T07:52:33.007Z,2.10
2022-12-22T07:54:59.960Z,2.17
2022-12-22T07:57:26.726Z,1.73
2022-12-22T07:59:54.531Z,1.83
2022-12-22T08:02:24.566Z,2.55
2022-12-22T08:04:51.557Z,1.60
2022-12-22T08:07:18.425Z,2.15
2022-12-22T08:09:46.253Z,1.83
2022-12-22T08:12:13.081Z,1.98
2022-12-22T08:14:39.790Z,1.90
2022-12-22T08:17:07.509Z,2.33
2022-12-22T08:19:34.208Z,2.13
2022-12-22T08:22:01.293Z,1.40
2022-12-22T08:24:28.132Z,2.35
2022-12-22T08:26:58.983Z,1.90
2022-12-22T08:29:43.269Z,2.70
2022-12-22T08:32:11.092Z,2.22
2022-12-22T08:37:43.078Z,1.95
2022-12-22T08:42:41.946Z,2.17
2022-12-22T08:45:11.240Z,2.05
2022-12-22T08:47:38.075Z,2.08
2022-12-22T08:50:05.532Z,1.95
2022-12-22T08:52:32.244Z,3.58
2022-12-22T08:54:58.967Z,3.15
2022-12-22T08:57:25.624Z,2.50
2022-12-22T08:59:52.331Z,2.97
2022-12-22T09:02:19.079Z,2.28
2022-12-22T09:04:45.902Z,2.15
2022-12-22T09:07:12.588Z,2.00
2022-12-22T09:09:39.304Z,2.50
2022-12-22T09:12:06.690Z,3.15
2022-12-22T09:14:38.732Z,2.63
2022-12-22T09:17:07.189Z,3.42
2022-12-22T09:19:34.057Z,3.42
2022-12-22T09:22:00.760Z,2.65
2022-12-22T09:24:27.486Z,1.77
2022-12-22T09:26:54.148Z,1.80
2022-12-22T09:29:21.696Z,1.73
2022-12-22T09:31:48.451Z,1.52
2022-12-22T09:34:18.009Z,2.28
2022-12-22T09:36:45.809Z,2.05
2022-12-22T09:39:13.338Z,1.60
2022-12-22T09:41:52.562Z,2.00
2022-12-22T09:44:33.564Z,1.85
2022-12-22T09:47:03.935Z,2.08
2022-12-22T09:49:31.434Z,2.15
2022-12-22T09:52:00.997Z,2.60
2022-12-22T09:54:29.100Z,2.05
2022-12-22T09:56:57.879Z,2.30
2022-12-22T09:59:28.028Z,2.10
2022-12-22T10:02:11.044Z,3.17
2022-12-22T10:04:43.761Z,2.58
2022-12-22T10:07:28.071Z,2.67
2022-12-22T10:09:55.152Z,3.03
2022-12-22T10:12:24.630Z,3.85
2022-12-22T10:14:53.478Z,3.00
2022-12-22T10:17:28.046Z,2.58
2022-12-22T10:20:18.830Z,2.30
2022-12-22T10:23:06.778Z,2.50
2022-12-22T10:28:51.662Z,1.52
2022-12-22T10:31:21.078Z,1.98
2022-12-22T10:33:51.435Z,1.73
2022-12-22T10:36:28.037Z,2.47
2022-12-22T10:39:10.213Z,1.77
2022-12-22T10:41:42.951Z,2.63
2022-12-22T10:44:21.216Z,2.00
2022-12-22T10:46:59.709Z,2.90
2022-12-22T10:52:30.034Z,3.95
2022-12-22T10:55:20.133Z,2.55
2022-12-22T10:57:47.262Z,2.58
2022-12-22T11:00:25.786Z,2.67
2022-12-22T11:02:57.304Z,3.40
2022-12-22T11:05:24.651Z,3.10
2022-12-22T11:07:54.478Z,2.85
2022-12-22T11:10:31.630Z,3.17
2022-12-22T11:13:36.722Z,3.58
2022-12-22T11:16:28.051Z,3.55
2022-12-22T11:19:25.519Z,3.03
2022-12-22T11:22:06.773Z,3.53
2022-12-22T11:24:58.235Z,2.72
2022-12-22T11:27:33.546Z,4.13
2022-12-22T11:30:17.125Z,3.63
2022-12-22T11:33:04.330Z,3.65
2022-12-22T11:35:48.586Z,2.78
2022-12-22T11:38:46.586Z,2.38
2022-12-22T11:41:26.884Z,2.13
2022-12-22T11:44:16.614Z,2.10
2022-12-22T11:46:54.530Z,2.78
2022-12-22T11:49:37.060Z,2.10
2022-12-22T11:52:36.393Z,2.78
2022-12-22T11:55:35.563Z,3.13
2022-12-22T11:58:19.535Z,2.05
2022-12-22T12:01:16.673Z,3.05
2022-12-22T12:03:58.115Z,2.22
2022-12-22T12:06:40.911Z,2.63
2022-12-22T12:12:02.724Z,1.80
2022-12-22T12:15:11.399Z,2.47
2022-12-22T12:18:05.605Z,1.95
2022-12-22T12:20:51.652Z,2.60
2022-12-22T12:23:40.013Z,1.33
2022-12-22T12:26:29.595Z,1.40
2022-12-22T12:29:16.271Z,1.70
2022-12-22T12:32:09.490Z,1.60
2022-12-22T12:34:41.891Z,1.70
2022-12-22T12:39:49.229Z,2.00
2022-12-22T12:42:15.946Z,1.83
2022-12-22T12:44:43.248Z,1.80
2022-12-22T12:47:30.154Z,1.45
2022-12-22T12:50:01.043Z,1.92
2022-12-22T12:52:39.997Z,1.75
2022-12-22T12:55:37.996Z,2.67
2022-12-22T12:58:10.045Z,2.67
2022-12-22T13:00:39.439Z,2.78
2022-12-22T13:04:02.676Z,2.55
2022-12-22T13:06:49.115Z,2.40
2022-12-22T13:12:34.965Z,3.13
2022-12-22T13:15:02.197Z,1.85
2022-12-22T13:17:37.832Z,3.42
2022-12-22T13:20:06.359Z,2.05
2022-12-22T13:22:33.569Z,3.75
2022-12-22T13:25:03.966Z,1.70
2022-12-22T13:27:31.150Z,3.63
2022-12-22T13:29:58.756Z,2.58
2022-12-22T13:32:35.724Z,2.78
2022-12-22T13:35:37.374Z,2.30
2022-12-22T13:38:05.597Z,2.03
2022-12-22T13:40:41.420Z,2.88
2022-12-22T13:43:13.723Z,2.17
2022-12-22T13:45:45.767Z,3.08
2022-12-22T13:48:22.130Z,2.55
2022-12-22T13:50:54.884Z,2.58
2022-12-22T13:56:25.010Z,2.10
2022-12-22T13:58:59.870Z,2.58
2022-12-22T14:01:26.769Z,2.25
2022-12-22T14:04:02.578Z,2.30
2022-12-22T14:06:34.632Z,2.38
2022-12-22T14:09:14.650Z,1.60
2022-12-22T14:11:51.185Z,2.00
2022-12-22T14:14:23.648Z,3.22
2022-12-22T14:16:52.983Z,2.83
2022-12-22T14:19:21.305Z,5.47
2022-12-22T14:21:54.625Z,3.63
2022-12-22T14:24:25.282Z,3.45
2022-12-22T14:26:53.998Z,2.60
2022-12-22T14:29:26.627Z,2.80
2022-12-22T14:32:04.410Z,3.33
2022-12-22T14:34:33.555Z,1.67
2022-12-22T14:37:01.715Z,2.83
2022-12-22T14:39:31.934Z,3.03
2022-12-22T14:42:01.612Z,4.30
2022-12-22T14:44:42.202Z,3.20
2022-12-22T14:47:12.153Z,3.05
2022-12-22T14:49:48.010Z,2.63
2022-12-22T14:52:25.054Z,2.45
2022-12-22T14:54:53.841Z,2.40
2022-12-22T14:57:32.574Z,2.15
2022-12-22T15:00:23.479Z,2.70
2022-12-22T15:02:55.333Z,2.42
2022-12-22T15:05:35.535Z,2.92
2022-12-22T15:08:06.569Z,2.38
2022-12-22T15:13:18.436Z,3.28
2022-12-22T15:15:47.581Z,2.33
2022-12-22T15:18:15.285Z,2.80
2022-12-22T15:20:42.069Z,2.60
2022-12-22T15:23:18.832Z,2.00
2022-12-22T15:25:45.844Z,2.13
2022-12-22T15:28:12.887Z,2.55
2022-12-22T15:30:40.177Z,2.55
2022-12-22T15:33:13.693Z,1.42
2022-12-22T15:35:41.214Z,2.10
2022-12-22T15:38:14.681Z,1.77
2022-12-22T15:40:41.602Z,1.73
2022-12-22T15:43:22.249Z,2.13
2022-12-22T15:45:55.204Z,2.30
2022-12-22T15:48:31.517Z,2.70
2022-12-22T15:50:58.843Z,2.88
2022-12-22T15:53:25.750Z,2.75
2022-12-22T15:55:54.871Z,3.08
2022-12-22T15:58:24.356Z,2.95
2022-12-22T16:00:51.047Z,3.15
2022-12-22T16:03:17.872Z,2.75
2022-12-22T16:05:46.016Z,2.00
2022-12-22T16:08:20.238Z,2.60
2022-12-22T16:10:47.461Z,2.28
2022-12-22T16:13:15.858Z,2.55
2022-12-22T16:15:42.841Z,2.90
2022-12-22T16:18:12.987Z,2.05
2022-12-22T16:20:42.527Z,3.70
2022-12-22T16:23:17.045Z,2.67
2022-12-22T16:25:45.820Z,3.58
2022-12-22T16:28:21.396Z,4.10
2022-12-22T16:30:48.430Z,5.50
2022-12-22T16:33:16.098Z,3.50
2022-12-22T16:35:43.239Z,3.58
2022-12-22T16:38:16.357Z,4.43
2022-12-22T16:40:48.930Z,4.05
2022-12-22T16:46:16.651Z,4.63
2022-12-22T16:48:49.866Z,3.72
2022-12-22T16:51:28.097Z,4.82
2022-12-22T16:53:55.304Z,4.55
2022-12-22T16:56:28.039Z,4.43
2022-12-22T16:58:54.914Z,3.88
2022-12-22T17:01:24.695Z,4.88
2022-12-22T17:03:51.954Z,4.97
2022-12-22T17:06:18.875Z,4.57
2022-12-22T17:08:46.695Z,4.05
2022-12-22T17:11:21.505Z,4.82
2022-12-22T17:13:50.103Z,5.40
2022-12-22T17:16:22.065Z,4.93
2022-12-22T17:18:49.447Z,4.88
2022-12-22T17:21:18.566Z,4.20
2022-12-22T17:23:54.797Z,5.57
2022-12-22T17:26:24.795Z,5.18
2022-12-22T17:28:52.281Z,4.38
2022-12-22T17:31:23.033Z,3.72
2022-12-22T17:33:50.128Z,5.07
2022-12-22T17:36:34.117Z,4.65
2022-12-22T17:39:02.549Z,6.57
2022-12-22T17:41:29.451Z,5.43
2022-12-22T17:43:56.388Z,4.75
2022-12-22T17:46:23.391Z,4.78
2022-12-22T17:48:52.422Z,5.03
2022-12-22T17:51:24.639Z,4.13
2022-12-22T17:53:52.603Z,4.60
2022-12-22T17:56:22.228Z,4.10
2022-12-22T17:58:49.587Z,4.20
2022-12-22T18:01:28.581Z,4.85
2022-12-22T18:03:56.563Z,5.35
2022-12-22T18:06:27.355Z,5.43
2022-12-22T18:08:55.878Z,6.15
2022-12-22T18:11:23.786Z,5.72
2022-12-22T18:13:51.541Z,4.50
2022-12-22T18:16:20.425Z,4.78
2022-12-22T18:18:47.328Z,4.25
2022-12-22T18:21:25.003Z,5.65
2022-12-22T18:23:52.915Z,4.68
2022-12-22T18:26:28.853Z,4.38
2022-12-22T18:28:56.222Z,4.05
2022-12-22T18:31:24.477Z,4.72
2022-12-22T18:33:51.771Z,5.32
2022-12-22T18:36:29.212Z,4.38
2022-12-22T18:38:56.695Z,4.43
2022-12-22T18:41:25.168Z,4.78
2022-12-22T18:43:52.291Z,5.15
2022-12-22T18:46:19.999Z,3.33
2022-12-22T18:48:47.803Z,4.40
2022-12-22T18:51:24.213Z,3.83
2022-12-22T18:53:52.955Z,3.63
2022-12-22T18:56:20.167Z,4.32
2022-12-22T18:58:47.099Z,5.10
2022-12-22T19:01:19.244Z,3.78
2022-12-22T19:03:46.082Z,3.72
2022-12-22T19:06:14.632Z,3.17
2022-12-22T19:08:45.826Z,4.13
2022-12-22T19:11:15.128Z,4.10
2022-12-22T19:13:47.751Z,4.57
2022-12-22T19:16:17.582Z,4.82
2022-12-22T19:18:44.320Z,3.53
2022-12-22T19:21:16.108Z,4.63
2022-12-22T19:23:43.356Z,4.32
2022-12-22T19:26:21.752Z,3.45
2022-12-22T19:28:51.289Z,4.05
2022-12-22T19:31:24.150Z,5.95
2022-12-22T19:33:52.148Z,3.28
2022-12-22T19:36:27.192Z,3.67
2022-12-22T19:39:03.267Z,3.90
2022-12-22T19:41:52.858Z,3.45
2022-12-22T19:44:25.764Z,4.55
2022-12-22T19:46:53.843Z,4.70
2022-12-22T19:49:23.049Z,3.63
2022-12-22T19:51:50.547Z,4.50
2022-12-22T19:54:17.657Z,4.45
2022-12-22T19:56:47.487Z,3.03
2022-12-22T19:59:39.838Z,4.45
2022-12-22T20:02:22.271Z,5.35
2022-12-22T20:04:49.937Z,5.43
2022-12-22T20:07:19.323Z,6.38
2022-12-22T20:09:46.180Z,3.67
2022-12-22T20:12:35.281Z,4.50
2022-12-22T20:15:23.222Z,3.90
2022-12-22T20:17:51.567Z,3.20
2022-12-22T20:20:29.533Z,3.85
2022-12-22T20:22:58.669Z,3.78
2022-12-22T20:25:28.141Z,3.05
2022-12-22T20:27:55.711Z,3.22
2022-12-22T20:30:26.211Z,2.83
2022-12-22T20:32:54.453Z,2.83
2022-12-22T20:35:22.874Z,3.33
2022-12-22T20:37:50.370Z,3.35
2022-12-22T20:40:23.992Z,3.78
2022-12-22T20:42:51.137Z,3.92
2022-12-22T20:45:21.073Z,3.55
2022-12-22T20:47:51.619Z,3.72
2022-12-22T20:50:27.867Z,2.88
2022-12-22T20:52:55.823Z,1.67
2022-12-22T20:55:25.701Z,3.40
2022-12-22T20:57:52.845Z,1.95
2022-12-22T21:00:30.332Z,3.97
2022-12-22T21:02:57.143Z,1.83
2022-12-22T21:05:23.904Z,2.00
2022-12-22T21:07:50.651Z,1.20
2022-12-22T21:10:26.295Z,1.45
2022-12-22T21:12:53.082Z,2.15
2022-12-22T21:15:26.176Z,2.85
2022-12-22T21:17:58.207Z,1.73
2022-12-22T21:20:27.798Z,1.77
2022-12-22T21:22:54.528Z,1.30
2022-12-22T21:25:21.610Z,1.55
2022-12-22T21:27:51.377Z,2.05
2022-12-22T21:30:24.331Z,1.40
2022-12-22T21:32:51.836Z,0.77
2022-12-22T21:35:27.091Z,1.23
2022-12-22T21:37:55.111Z,0.95
2022-12-22T21:40:28.084Z,0.60
2022-12-22T21:42:55.659Z,0.80
2022-12-22T21:45:31.444Z,1.35
2022-12-22T21:48:00.930Z,0.95
2022-12-22T21:50:30.929Z,1.35
2022-12-22T21:52:57.731Z,1.08
2022-12-22T21:55:30.588Z,1.60
2022-12-22T21:57:58.507Z,1.70
2022-12-22T22:00:27.457Z,1.10
2022-12-22T22:02:55.198Z,1.33
2022-12-22T22:05:26.818Z,1.48
2022-12-22T22:07:54.118Z,0.60
2022-12-22T22:10:24.644Z,0.68
2022-12-22T22:12:51.880Z,0.90
2022-12-22T22:15:19.680Z,0.80
2022-12-22T22:17:46.913Z,0.60
2022-12-22T22:20:20.258Z,0.50
2022-12-22T22:22:48.319Z,0.77
2022-12-22T22:25:17.167Z,0.80
2022-12-22T22:27:47.977Z,0.65
2022-12-22T22:30:19.046Z,0.60
2022-12-22T22:32:46.339Z,1.35
2022-12-22T22:35:13.671Z,0.60
2022-12-22T22:37:40.908Z,0.60
2022-12-22T22:40:12.076Z,0.45
2022-12-22T22:42:39.048Z,0.55
2022-12-22T22:45:06.792Z,2.25
2022-12-22T22:47:33.898Z,0.93
2022-12-22T22:50:00.965Z,0.50
2022-12-22T22:52:27.919Z,0.63
2022-12-22T22:54:54.582Z,0.60
2022-12-22T22:57:21.226Z,0.73
2022-12-22T22:59:47.962Z,0.65
2022-12-22T23:02:16.049Z,0.82
2022-12-22T23:04:42.993Z,0.60
2022-12-22T23:07:12.811Z,0.85
2022-12-22T23:09:39.576Z,0.40
2022-12-22T23:12:06.625Z,0.40
2022-12-22T23:14:33.474Z,0.45
2022-12-22T23:17:00.126Z,0.77
2022-12-22T23:19:26.997Z,0.70
2022-12-22T23:21:53.729Z,0.70
2022-12-22T23:24:20.477Z,0.55
2022-12-22T23:26:47.172Z,0.50
2022-12-22T23:29:13.985Z,0.60
2022-12-22T23:31:40.717Z,0.63
2022-12-22T23:34:07.495Z,1.08
2022-12-22T23:36:34.196Z,0.43
2022-12-22T23:39:00.951Z,0.68
2022-12-22T23:41:28.023Z,0.50
2022-12-22T23:43:55.103Z,0.80
2022-12-22T23:46:22.385Z,0.80
2022-12-22T23:48:54.457Z,0.43
2022-12-22T23:51:23.228Z,0.57
2022-12-22T23:53:49.945Z,0.63
2022-12-22T23:56:17.003Z,0.50
2022-12-22T23:58:44.773Z,0.70
